Solomon, Kansas
Current Conditions -  °F | °C
As of 11:53 AM on Monday 24 Nov 2014 (Local Time) from KSLN Reporting Station
Clear Clear  
Wind Chill: 35°   Ceiling: Unl
Heat Index: 45°   Visibility: 10mi
Dew Point: 20°   Wind: 30mph
Humidity: 37%   Direction: 320°NW
Pressure: 29.86"   Gusts: 36mph
Location:  38.92°N, 97.37°W
Report Text: KSLN 241753Z 32026G31KT 10SM CLR 07/M07 A2986 RMK AO2 PK WND 32031/1752 SLP115 T00721067 10072 20006 51016
Loading
Personal Weather Stations






























Interactive Weather Map New forecast layout! Learn more

10-Day Weather Forecast

Advertisements
Track Severe Weather on mobile